sensor_id;sensor_type;location;lat;lon;timestamp;temperature;humidity
6756;DHT22;3415;51.148;7.014;2022-07-06T06:07:43;15.60;1.00
6756;DHT22;3415;51.148;7.014;2022-07-06T06:10:12;15.70;1.00
6756;DHT22;3415;51.148;7.014;2022-07-06T06:12:40;15.90;1.00
6756;DHT22;3415;51.148;7.014;2022-07-06T06:15:08;15.90;1.00
6756;DHT22;3415;51.148;7.014;2022-07-06T06:20:04;15.90;1.00
6756;DHT22;3415;51.148;7.014;2022-07-06T06:22:32;16.10;1.00
6756;DHT22;3415;51.148;7.014;2022-07-06T06:25:11;16.20;1.00
6756;DHT22;3415;51.148;7.014;2022-07-06T06:27:38;16.50;1.00
6756;DHT22;3415;51.148;7.014;2022-07-06T06:30:06;16.50;1.00
6756;DHT22;3415;51.148;7.014;2022-07-06T06:35:00;16.80;1.00
6756;DHT22;3415;51.148;7.014;2022-07-06T06:39:54;16.80;1.00
6756;DHT22;3415;51.148;7.014;2022-07-06T06:42:22;16.90;1.00
6756;DHT22;3415;51.148;7.014;2022-07-06T06:47:16;17.60;1.00
6756;DHT22;3415;51.148;7.014;2022-07-06T06:49:44;18.00;1.00
6756;DHT22;3415;51.148;7.014;2022-07-06T06:52:11;18.30;1.00
6756;DHT22;3415;51.148;7.014;2022-07-06T06:54:38;18.40;1.00
6756;DHT22;3415;51.148;7.014;2022-07-06T06:57:05;18.40;1.00
6756;DHT22;3415;51.148;7.014;2022-07-06T06:59:33;18.30;1.00
6756;DHT22;3415;51.148;7.014;2022-07-06T07:04:27;17.90;1.00
6756;DHT22;3415;51.148;7.014;2022-07-06T07:09:22;17.70;1.00
6756;DHT22;3415;51.148;7.014;2022-07-06T07:11:48;17.50;1.00
6756;DHT22;3415;51.148;7.014;2022-07-06T07:14:15;17.40;1.00
6756;DHT22;3415;51.148;7.014;2022-07-06T07:16:43;17.40;1.00
6756;DHT22;3415;51.148;7.014;2022-07-06T07:21:37;17.50;1.00
6756;DHT22;3415;51.148;7.014;2022-07-06T07:24:05;17.40;1.00
6756;DHT22;3415;51.148;7.014;2022-07-06T07:26:33;17.70;1.00
6756;DHT22;3415;51.148;7.014;2022-07-06T07:28:59;17.90;99.90
6756;DHT22;3415;51.148;7.014;2022-07-06T07:31:26;18.10;99.90
6756;DHT22;3415;51.148;7.014;2022-07-06T07:33:54;18.50;99.90
6756;DHT22;3415;51.148;7.014;2022-07-06T07:36:22;18.90;99.90
6756;DHT22;3415;51.148;7.014;2022-07-06T07:38:49;19.10;99.90
6756;DHT22;3415;51.148;7.014;2022-07-06T07:41:16;19.30;99.90
6756;DHT22;3415;51.148;7.014;2022-07-06T07:46:10;19.40;99.90
6756;DHT22;3415;51.148;7.014;2022-07-06T07:48:37;20.40;99.90
6756;DHT22;3415;51.148;7.014;2022-07-06T07:51:05;20.20;99.90
6756;DHT22;3415;51.148;7.014;2022-07-06T07:56:00;19.30;99.90
6756;DHT22;3415;51.148;7.014;2022-07-06T07:58:27;18.60;99.90
6756;DHT22;3415;51.148;7.014;2022-07-06T08:00:54;18.50;99.90
6756;DHT22;3415;51.148;7.014;2022-07-06T08:03:21;18.30;99.90
6756;DHT22;3415;51.148;7.014;2022-07-06T08:08:17;18.20;99.90
6756;DHT22;3415;51.148;7.014;2022-07-06T08:10:44;18.00;99.90
6756;DHT22;3415;51.148;7.014;2022-07-06T08:13:11;18.10;99.90
6756;DHT22;3415;51.148;7.014;2022-07-06T08:18:07;18.20;99.90
6756;DHT22;3415;51.148;7.014;2022-07-06T08:23:03;19.40;99.90
6756;DHT22;3415;51.148;7.014;2022-07-06T08:25:31;20.70;99.90
6756;DHT22;3415;51.148;7.014;2022-07-06T08:30:25;22.50;99.90
6756;DHT22;3415;51.148;7.014;2022-07-06T08:35:19;21.90;99.90
6756;DHT22;3415;51.148;7.014;2022-07-06T08:37:46;21.50;99.90
6756;DHT22;3415;51.148;7.014;2022-07-06T08:40:13;20.80;99.90
6756;DHT22;3415;51.148;7.014;2022-07-06T08:42:42;19.90;99.90
6756;DHT22;3415;51.148;7.014;2022-07-06T08:45:10;19.50;99.90
6756;DHT22;3415;51.148;7.014;2022-07-06T08:47:37;19.60;99.90
6756;DHT22;3415;51.148;7.014;2022-07-06T08:50:05;19.40;99.90
6756;DHT22;3415;51.148;7.014;2022-07-06T08:54:59;19.80;99.90
6756;DHT22;3415;51.148;7.014;2022-07-06T08:57:27;21.30;99.90
6756;DHT22;3415;51.148;7.014;2022-07-06T08:59:55;21.80;99.90
6756;DHT22;3415;51.148;7.014;2022-07-06T09:02:25;21.50;99.90
6756;DHT22;3415;51.148;7.014;2022-07-06T09:04:54;21.60;99.90
6756;DHT22;3415;51.148;7.014;2022-07-06T09:07:22;21.30;99.90
6756;DHT22;3415;51.148;7.014;2022-07-06T09:09:49;21.00;99.90
6756;DHT22;3415;51.148;7.014;2022-07-06T09:12:18;20.70;99.90
6756;DHT22;3415;51.148;7.014;2022-07-06T09:14:45;21.00;99.90
6756;DHT22;3415;51.148;7.014;2022-07-06T09:17:13;21.30;99.90
6756;DHT22;3415;51.148;7.014;2022-07-06T09:22:07;21.80;99.90
6756;DHT22;3415;51.148;7.014;2022-07-06T09:24:41;23.70;99.90
6756;DHT22;3415;51.148;7.014;2022-07-06T09:27:16;25.50;99.90
6756;DHT22;3415;51.148;7.014;2022-07-06T09:29:43;26.70;99.90
6756;DHT22;3415;51.148;7.014;2022-07-06T09:32:19;25.60;99.90
6756;DHT22;3415;51.148;7.014;2022-07-06T09:37:15;26.40;99.90
6756;DHT22;3415;51.148;7.014;2022-07-06T09:39:43;26.50;99.90
6756;DHT22;3415;51.148;7.014;2022-07-06T09:42:10;26.10;99.90
6756;DHT22;3415;51.148;7.014;2022-07-06T09:44:38;27.20;99.90
6756;DHT22;3415;51.148;7.014;2022-07-06T09:47:06;27.40;99.90
6756;DHT22;3415;51.148;7.014;2022-07-06T09:49:35;27.80;99.90
6756;DHT22;3415;51.148;7.014;2022-07-06T09:52:04;26.50;99.90
6756;DHT22;3415;51.148;7.014;2022-07-06T09:54:32;25.00;99.90
6756;DHT22;3415;51.148;7.014;2022-07-06T09:57:02;24.00;99.90
6756;DHT22;3415;51.148;7.014;2022-07-06T09:59:30;25.00;99.90
6756;DHT22;3415;51.148;7.014;2022-07-06T10:01:59;26.70;99.90
6756;DHT22;3415;51.148;7.014;2022-07-06T10:04:27;27.80;99.90
6756;DHT22;3415;51.148;7.014;2022-07-06T10:06:57;29.00;99.90
6756;DHT22;3415;51.148;7.014;2022-07-06T10:09:26;28.50;99.90
6756;DHT22;3415;51.148;7.014;2022-07-06T10:11:55;28.60;99.90
6756;DHT22;3415;51.148;7.014;2022-07-06T10:14:23;28.00;99.90
6756;DHT22;3415;51.148;7.014;2022-07-06T10:16:51;26.80;99.90
6756;DHT22;3415;51.148;7.014;2022-07-06T10:19:20;25.70;99.90
6756;DHT22;3415;51.148;7.014;2022-07-06T10:21:48;25.70;99.90
6756;DHT22;3415;51.148;7.014;2022-07-06T10:24:18;24.90;99.90
6756;DHT22;3415;51.148;7.014;2022-07-06T10:26:46;24.20;99.90
6756;DHT22;3415;51.148;7.014;2022-07-06T10:29:13;23.20;99.90
6756;DHT22;3415;51.148;7.014;2022-07-06T10:31:43;22.50;99.90
6756;DHT22;3415;51.148;7.014;2022-07-06T10:34:12;24.00;99.90
6756;DHT22;3415;51.148;7.014;2022-07-06T10:36:42;25.00;99.90
6756;DHT22;3415;51.148;7.014;2022-07-06T10:39:10;23.80;99.90
6756;DHT22;3415;51.148;7.014;2022-07-06T10:41:56;22.70;99.90
6756;DHT22;3415;51.148;7.014;2022-07-06T10:44:24;22.40;99.90
6756;DHT22;3415;51.148;7.014;2022-07-06T10:46:53;23.30;99.90
6756;DHT22;3415;51.148;7.014;2022-07-06T10:49:21;25.00;99.90
6756;DHT22;3415;51.148;7.014;2022-07-06T10:51:48;25.10;99.90
6756;DHT22;3415;51.148;7.014;2022-07-06T10:54:17;24.60;99.90
6756;DHT22;3415;51.148;7.014;2022-07-06T10:56:46;23.80;99.90
6756;DHT22;3415;51.148;7.014;2022-07-06T10:59:15;23.00;99.90
6756;DHT22;3415;51.148;7.014;2022-07-06T11:02:11;22.70;99.90
6756;DHT22;3415;51.148;7.014;2022-07-06T11:04:38;22.60;99.90
6756;DHT22;3415;51.148;7.014;2022-07-06T11:07:07;22.70;99.90
6756;DHT22;3415;51.148;7.014;2022-07-06T11:09:36;22.50;99.90
6756;DHT22;3415;51.148;7.014;2022-07-06T11:12:12;22.20;99.90
6756;DHT22;3415;51.148;7.014;2022-07-06T11:14:42;22.30;99.90
6756;DHT22;3415;51.148;7.014;2022-07-06T11:17:10;24.40;99.90
6756;DHT22;3415;51.148;7.014;2022-07-06T11:19:48;26.30;99.90
6756;DHT22;3415;51.148;7.014;2022-07-06T11:22:16;26.80;99.90
6756;DHT22;3415;51.148;7.014;2022-07-06T11:27:12;27.80;99.90
6756;DHT22;3415;51.148;7.014;2022-07-06T11:32:09;29.00;99.90
6756;DHT22;3415;51.148;7.014;2022-07-06T11:34:38;28.20;99.90
6756;DHT22;3415;51.148;7.014;2022-07-06T11:37:06;28.20;99.90
6756;DHT22;3415;51.148;7.014;2022-07-06T11:39:34;27.60;99.90
6756;DHT22;3415;51.148;7.014;2022-07-06T11:42:02;25.60;99.90
6756;DHT22;3415;51.148;7.014;2022-07-06T11:46:57;24.20;99.90
6756;DHT22;3415;51.148;7.014;2022-07-06T11:49:27;24.20;99.90
6756;DHT22;3415;51.148;7.014;2022-07-06T11:54:22;25.30;99.90
6756;DHT22;3415;51.148;7.014;2022-07-06T11:56:51;26.00;99.90
6756;DHT22;3415;51.148;7.014;2022-07-06T11:59:21;26.10;99.90
6756;DHT22;3415;51.148;7.014;2022-07-06T12:04:15;26.30;99.90
6756;DHT22;3415;51.148;7.014;2022-07-06T12:06:45;27.20;99.90
6756;DHT22;3415;51.148;7.014;2022-07-06T12:09:12;29.10;99.90
6756;DHT22;3415;51.148;7.014;2022-07-06T12:11:40;29.40;99.90
6756;DHT22;3415;51.148;7.014;2022-07-06T12:14:13;28.70;99.90
6756;DHT22;3415;51.148;7.014;2022-07-06T12:16:41;26.60;99.90
6756;DHT22;3415;51.148;7.014;2022-07-06T12:19:08;24.50;99.90
6756;DHT22;3415;51.148;7.014;2022-07-06T12:21:42;23.40;99.90
6756;DHT22;3415;51.148;7.014;2022-07-06T12:24:17;23.30;99.90
6756;DHT22;3415;51.148;7.014;2022-07-06T12:29:13;23.10;99.90
6756;DHT22;3415;51.148;7.014;2022-07-06T12:31:41;22.80;99.90
6756;DHT22;3415;51.148;7.014;2022-07-06T12:34:13;22.80;99.90
6756;DHT22;3415;51.148;7.014;2022-07-06T12:36:44;22.50;99.90
6756;DHT22;3415;51.148;7.014;2022-07-06T12:39:14;22.40;99.90
6756;DHT22;3415;51.148;7.014;2022-07-06T12:41:45;22.40;99.90
6756;DHT22;3415;51.148;7.014;2022-07-06T12:44:13;22.60;99.90
6756;DHT22;3415;51.148;7.014;2022-07-06T12:46:42;22.80;99.90
6756;DHT22;3415;51.148;7.014;2022-07-06T12:49:15;22.70;99.90
6756;DHT22;3415;51.148;7.014;2022-07-06T12:51:59;22.80;99.90
6756;DHT22;3415;51.148;7.014;2022-07-06T12:54:30;23.20;99.90
6756;DHT22;3415;51.148;7.014;2022-07-06T12:57:04;23.20;99.90
6756;DHT22;3415;51.148;7.014;2022-07-06T12:59:33;23.20;99.90
6756;DHT22;3415;51.148;7.014;2022-07-06T13:02:02;22.90;99.90
6756;DHT22;3415;51.148;7.014;2022-07-06T13:04:30;22.80;99.90
6756;DHT22;3415;51.148;7.014;2022-07-06T13:06:59;22.60;99.90
6756;DHT22;3415;51.148;7.014;2022-07-06T13:09:28;22.30;99.90
6756;DHT22;3415;51.148;7.014;2022-07-06T13:11:56;21.90;99.90
6756;DHT22;3415;51.148;7.014;2022-07-06T13:14:22;21.90;99.90
6756;DHT22;3415;51.148;7.014;2022-07-06T13:16:49;22.00;99.90
6756;DHT22;3415;51.148;7.014;2022-07-06T13:19:16;22.00;99.90
6756;DHT22;3415;51.148;7.014;2022-07-06T13:21:43;22.00;99.90
6756;DHT22;3415;51.148;7.014;2022-07-06T13:24:11;22.20;99.90
6756;DHT22;3415;51.148;7.014;2022-07-06T13:26:39;22.20;99.90
6756;DHT22;3415;51.148;7.014;2022-07-06T13:31:37;22.40;99.90
6756;DHT22;3415;51.148;7.014;2022-07-06T13:34:04;22.00;99.90
6756;DHT22;3415;51.148;7.014;2022-07-06T13:36:31;21.90;99.90
6756;DHT22;3415;51.148;7.014;2022-07-06T13:38:58;22.00;99.90
6756;DHT22;3415;51.148;7.014;2022-07-06T13:43:53;22.10;99.90
6756;DHT22;3415;51.148;7.014;2022-07-06T13:51:15;22.10;99.90
6756;DHT22;3415;51.148;7.014;2022-07-06T13:53:41;22.20;99.90
6756;DHT22;3415;51.148;7.014;2022-07-06T13:56:08;22.00;99.90
6756;DHT22;3415;51.148;7.014;2022-07-06T13:58:35;21.90;99.90
6756;DHT22;3415;51.148;7.014;2022-07-06T14:01:04;22.10;99.90
6756;DHT22;3415;51.148;7.014;2022-07-06T14:03:31;22.20;99.90
6756;DHT22;3415;51.148;7.014;2022-07-06T14:05:59;22.40;99.90
6756;DHT22;3415;51.148;7.014;2022-07-06T14:08:27;22.20;99.90
6756;DHT22;3415;51.148;7.014;2022-07-06T14:13:22;22.20;99.90
6756;DHT22;3415;51.148;7.014;2022-07-06T14:15:49;22.40;99.90
6756;DHT22;3415;51.148;7.014;2022-07-06T14:18:17;22.50;99.90
6756;DHT22;3415;51.148;7.014;2022-07-06T14:23:11;22.30;99.90
6756;DHT22;3415;51.148;7.014;2022-07-06T14:25:39;22.30;99.90
6756;DHT22;3415;51.148;7.014;2022-07-06T14:28:06;22.00;99.90
6756;DHT22;3415;51.148;7.014;2022-07-06T14:30:33;22.00;99.90
6756;DHT22;3415;51.148;7.014;2022-07-06T14:35:34;21.70;99.90
6756;DHT22;3415;51.148;7.014;2022-07-06T14:38:01;21.80;99.90
6756;DHT22;3415;51.148;7.014;2022-07-06T14:47:50;21.90;99.90
6756;DHT22;3415;51.148;7.014;2022-07-06T14:50:17;21.90;99.90
6756;DHT22;3415;51.148;7.014;2022-07-06T14:52:45;21.80;99.90
6756;DHT22;3415;51.148;7.014;2022-07-06T14:55:12;21.70;99.90
6756;DHT22;3415;51.148;7.014;2022-07-06T14:57:39;21.60;99.90
6756;DHT22;3415;51.148;7.014;2022-07-06T15:00:07;21.70;99.90
6756;DHT22;3415;51.148;7.014;2022-07-06T15:05:02;21.70;99.90
6756;DHT22;3415;51.148;7.014;2022-07-06T15:07:29;21.90;99.90
6756;DHT22;3415;51.148;7.014;2022-07-06T15:09:58;21.90;99.90
6756;DHT22;3415;51.148;7.014;2022-07-06T15:12:24;21.70;99.90
6756;DHT22;3415;51.148;7.014;2022-07-06T15:17:18;21.70;99.90
6756;DHT22;3415;51.148;7.014;2022-07-06T15:19:45;21.70;99.90
6756;DHT22;3415;51.148;7.014;2022-07-06T15:22:12;22.10;99.90
6756;DHT22;3415;51.148;7.014;2022-07-06T15:24:39;22.20;99.90
6756;DHT22;3415;51.148;7.014;2022-07-06T15:27:07;22.20;99.90
6756;DHT22;3415;51.148;7.014;2022-07-06T15:29:34;22.10;99.90
6756;DHT22;3415;51.148;7.014;2022-07-06T15:32:01;22.20;99.90
6756;DHT22;3415;51.148;7.014;2022-07-06T15:36:55;22.20;99.90
6756;DHT22;3415;51.148;7.014;2022-07-06T15:39:22;22.20;99.90
6756;DHT22;3415;51.148;7.014;2022-07-06T15:41:49;22.20;99.90
6756;DHT22;3415;51.148;7.014;2022-07-06T15:44:17;22.40;99.90
6756;DHT22;3415;51.148;7.014;2022-07-06T15:46:44;22.60;99.90
6756;DHT22;3415;51.148;7.014;2022-07-06T15:49:14;22.60;99.90
6756;DHT22;3415;51.148;7.014;2022-07-06T15:56:38;22.20;99.90
6756;DHT22;3415;51.148;7.014;2022-07-06T16:01:33;21.30;99.90
6756;DHT22;3415;51.148;7.014;2022-07-06T16:04:00;21.40;99.90
6756;DHT22;3415;51.148;7.014;2022-07-06T16:06:27;21.70;99.90
6756;DHT22;3415;51.148;7.014;2022-07-06T16:08:54;22.20;99.90
6756;DHT22;3415;51.148;7.014;2022-07-06T16:11:21;22.30;99.90
6756;DHT22;3415;51.148;7.014;2022-07-06T16:16:15;21.90;99.90
6756;DHT22;3415;51.148;7.014;2022-07-06T16:18:44;21.80;99.90
6756;DHT22;3415;51.148;7.014;2022-07-06T16:21:10;21.70;99.90
6756;DHT22;3415;51.148;7.014;2022-07-06T16:26:06;21.50;99.90
6756;DHT22;3415;51.148;7.014;2022-07-06T16:28:33;21.30;99.90
6756;DHT22;3415;51.148;7.014;2022-07-06T16:31:00;21.10;99.90
6756;DHT22;3415;51.148;7.014;2022-07-06T16:33:27;21.10;99.90
6756;DHT22;3415;51.148;7.014;2022-07-06T16:35:55;21.10;99.90
6756;DHT22;3415;51.148;7.014;2022-07-06T16:38:22;21.10;99.90
6756;DHT22;3415;51.148;7.014;2022-07-06T16:40:49;21.30;99.90
6756;DHT22;3415;51.148;7.014;2022-07-06T16:43:16;21.40;99.90
6756;DHT22;3415;51.148;7.014;2022-07-06T16:45:43;21.30;99.90
6756;DHT22;3415;51.148;7.014;2022-07-06T16:53:06;21.40;99.90
6756;DHT22;3415;51.148;7.014;2022-07-06T16:55:34;21.30;99.90
6756;DHT22;3415;51.148;7.014;2022-07-06T17:02:58;21.30;99.90
6756;DHT22;3415;51.148;7.014;2022-07-06T17:07:53;21.40;99.90
6756;DHT22;3415;51.148;7.014;2022-07-06T17:10:21;21.10;99.90
6756;DHT22;3415;51.148;7.014;2022-07-06T17:12:48;21.00;99.90
6756;DHT22;3415;51.148;7.014;2022-07-06T17:20:10;20.70;99.90
6756;DHT22;3415;51.148;7.014;2022-07-06T17:22:36;20.60;99.90
6756;DHT22;3415;51.148;7.014;2022-07-06T17:25:04;20.40;99.90
6756;DHT22;3415;51.148;7.014;2022-07-06T17:27:32;20.40;99.90
6756;DHT22;3415;51.148;7.014;2022-07-06T17:29:59;20.30;99.90
6756;DHT22;3415;51.148;7.014;2022-07-06T17:32:26;20.20;99.90
6756;DHT22;3415;51.148;7.014;2022-07-06T17:34:53;20.20;99.90
6756;DHT22;3415;51.148;7.014;2022-07-06T17:37:20;20.20;99.90
6756;DHT22;3415;51.148;7.014;2022-07-06T17:39:47;20.20;99.90
6756;DHT22;3415;51.148;7.014;2022-07-06T17:42:13;20.10;99.90
6756;DHT22;3415;51.148;7.014;2022-07-06T17:44:42;20.10;99.90
6756;DHT22;3415;51.148;7.014;2022-07-06T17:47:09;20.10;99.90
6756;DHT22;3415;51.148;7.014;2022-07-06T17:49:36;20.00;99.90
6756;DHT22;3415;51.148;7.014;2022-07-06T17:52:03;19.90;99.90
6756;DHT22;3415;51.148;7.014;2022-07-06T17:54:37;19.80;99.90
6756;DHT22;3415;51.148;7.014;2022-07-06T17:57:04;19.70;99.90
6756;DHT22;3415;51.148;7.014;2022-07-06T17:59:31;19.60;99.90
6756;DHT22;3415;51.148;7.014;2022-07-06T18:01:59;19.70;99.90
6756;DHT22;3415;51.148;7.014;2022-07-06T18:06:53;19.80;99.90
6756;DHT22;3415;51.148;7.014;2022-07-06T18:09:20;19.90;99.90
6756;DHT22;3415;51.148;7.014;2022-07-06T18:11:47;19.90;99.90
6756;DHT22;3415;51.148;7.014;2022-07-06T18:14:14;19.80;99.90
6756;DHT22;3415;51.148;7.014;2022-07-06T18:16:40;19.90;99.90
6756;DHT22;3415;51.148;7.014;2022-07-06T18:19:09;19.90;99.90
6756;DHT22;3415;51.148;7.014;2022-07-06T18:24:03;19.90;99.90
6756;DHT22;3415;51.148;7.014;2022-07-06T18:26:30;19.90;99.90
6756;DHT22;3415;51.148;7.014;2022-07-06T18:28:57;19.90;99.90
6756;DHT22;3415;51.148;7.014;2022-07-06T18:31:24;19.90;99.90
6756;DHT22;3415;51.148;7.014;2022-07-06T18:33:51;19.80;99.90
6756;DHT22;3415;51.148;7.014;2022-07-06T18:36:19;19.80;99.90
6756;DHT22;3415;51.148;7.014;2022-07-06T18:38:46;19.70;99.90
6756;DHT22;3415;51.148;7.014;2022-07-06T18:43:40;19.60;99.90
6756;DHT22;3415;51.148;7.014;2022-07-06T18:46:07;19.50;99.90
6756;DHT22;3415;51.148;7.014;2022-07-06T18:48:34;19.40;99.90
6756;DHT22;3415;51.148;7.014;2022-07-06T18:51:01;19.30;99.90
6756;DHT22;3415;51.148;7.014;2022-07-06T18:53:29;19.20;99.90
6756;DHT22;3415;51.148;7.014;2022-07-06T18:55:56;19.20;99.90
6756;DHT22;3415;51.148;7.014;2022-07-06T19:00:50;19.30;99.90
6756;DHT22;3415;51.148;7.014;2022-07-06T19:03:17;19.20;99.90
6756;DHT22;3415;51.148;7.014;2022-07-06T19:05:44;19.20;99.90
6756;DHT22;3415;51.148;7.014;2022-07-06T19:08:11;19.20;99.90
6756;DHT22;3415;51.148;7.014;2022-07-06T19:10:39;19.10;99.90
6756;DHT22;3415;51.148;7.014;2022-07-06T19:13:07;19.10;99.90
6756;DHT22;3415;51.148;7.014;2022-07-06T19:15:34;19.10;99.90
6756;DHT22;3415;51.148;7.014;2022-07-06T19:18:01;19.10;99.90
6756;DHT22;3415;51.148;7.014;2022-07-06T19:20:28;19.10;99.90
6756;DHT22;3415;51.148;7.014;2022-07-06T19:22:55;19.00;99.90
6756;DHT22;3415;51.148;7.014;2022-07-06T19:27:50;19.00;99.90
6756;DHT22;3415;51.148;7.014;2022-07-06T19:30:17;19.00;99.90
6756;DHT22;3415;51.148;7.014;2022-07-06T19:32:44;18.90;99.90
6756;DHT22;3415;51.148;7.014;2022-07-06T19:35:11;18.90;99.90
6756;DHT22;3415;51.148;7.014;2022-07-06T19:40:07;18.70;99.90
6756;DHT22;3415;51.148;7.014;2022-07-06T19:45:05;18.60;99.90
6756;DHT22;3415;51.148;7.014;2022-07-06T19:49:59;18.60;99.90
6756;DHT22;3415;51.148;7.014;2022-07-06T19:52:26;18.50;99.90
6756;DHT22;3415;51.148;7.014;2022-07-06T19:57:20;18.80;99.90
6756;DHT22;3415;51.148;7.014;2022-07-06T20:02:15;18.50;99.90
6756;DHT22;3415;51.148;7.014;2022-07-06T20:04:42;18.50;99.90
6756;DHT22;3415;51.148;7.014;2022-07-06T20:07:09;18.50;99.90
6756;DHT22;3415;51.148;7.014;2022-07-06T20:09:36;18.50;99.90
6756;DHT22;3415;51.148;7.014;2022-07-06T20:12:04;18.50;99.90
6756;DHT22;3415;51.148;7.014;2022-07-06T20:14:31;18.40;99.90
6756;DHT22;3415;51.148;7.014;2022-07-06T20:16:58;18.40;99.90
6756;DHT22;3415;51.148;7.014;2022-07-06T20:19:26;18.40;99.90
6756;DHT22;3415;51.148;7.014;2022-07-06T20:21:53;18.30;99.90
6756;DHT22;3415;51.148;7.014;2022-07-06T20:24:20;18.30;99.90
6756;DHT22;3415;51.148;7.014;2022-07-06T20:26:47;18.20;99.90
6756;DHT22;3415;51.148;7.014;2022-07-06T20:29:15;18.20;99.90
6756;DHT22;3415;51.148;7.014;2022-07-06T20:31:42;18.10;99.90
6756;DHT22;3415;51.148;7.014;2022-07-06T20:34:09;18.00;99.90
6756;DHT22;3415;51.148;7.014;2022-07-06T20:36:37;18.00;99.90
6756;DHT22;3415;51.148;7.014;2022-07-06T20:39:04;18.00;99.90
6756;DHT22;3415;51.148;7.014;2022-07-06T20:41:31;17.90;99.90
6756;DHT22;3415;51.148;7.014;2022-07-06T20:43:58;17.90;99.90
6756;DHT22;3415;51.148;7.014;2022-07-06T20:46:25;17.90;99.90
6756;DHT22;3415;51.148;7.014;2022-07-06T20:48:52;17.90;99.90
6756;DHT22;3415;51.148;7.014;2022-07-06T20:51:19;18.00;99.90
6756;DHT22;3415;51.148;7.014;2022-07-06T20:53:47;17.90;99.90
6756;DHT22;3415;51.148;7.014;2022-07-06T20:56:14;17.90;99.90
6756;DHT22;3415;51.148;7.014;2022-07-06T20:58:42;18.00;99.90
6756;DHT22;3415;51.148;7.014;2022-07-06T21:01:08;18.00;99.90
6756;DHT22;3415;51.148;7.014;2022-07-06T21:03:35;18.00;99.90
6756;DHT22;3415;51.148;7.014;2022-07-06T21:06:02;18.00;99.90
6756;DHT22;3415;51.148;7.014;2022-07-06T21:08:29;18.00;99.90
6756;DHT22;3415;51.148;7.014;2022-07-06T21:10:57;18.00;99.90
6756;DHT22;3415;51.148;7.014;2022-07-06T21:13:24;18.00;99.90
6756;DHT22;3415;51.148;7.014;2022-07-06T21:18:18;18.10;99.90
6756;DHT22;3415;51.148;7.014;2022-07-06T21:20:45;18.20;99.90
6756;DHT22;3415;51.148;7.014;2022-07-06T21:23:12;18.20;99.90
6756;DHT22;3415;51.148;7.014;2022-07-06T21:25:39;18.10;99.90
6756;DHT22;3415;51.148;7.014;2022-07-06T21:28:07;18.10;99.90
6756;DHT22;3415;51.148;7.014;2022-07-06T21:30:34;18.20;99.90
6756;DHT22;3415;51.148;7.014;2022-07-06T21:33:01;18.10;99.90
6756;DHT22;3415;51.148;7.014;2022-07-06T21:35:28;18.10;99.90
6756;DHT22;3415;51.148;7.014;2022-07-06T21:37:54;18.00;99.90
6756;DHT22;3415;51.148;7.014;2022-07-06T21:40:21;18.00;99.90
6756;DHT22;3415;51.148;7.014;2022-07-06T21:42:48;18.10;99.90
6756;DHT22;3415;51.148;7.014;2022-07-06T21:45:16;18.20;99.90
6756;DHT22;3415;51.148;7.014;2022-07-06T21:47:43;18.20;99.90
6756;DHT22;3415;51.148;7.014;2022-07-06T21:50:10;18.20;99.90
6756;DHT22;3415;51.148;7.014;2022-07-06T21:52:37;18.20;99.90
6756;DHT22;3415;51.148;7.014;2022-07-06T21:55:04;18.10;99.90
6756;DHT22;3415;51.148;7.014;2022-07-06T21:57:32;18.10;99.90
6756;DHT22;3415;51.148;7.014;2022-07-06T21:59:58;18.10;99.90
6756;DHT22;3415;51.148;7.014;2022-07-06T22:02:27;18.00;99.90
6756;DHT22;3415;51.148;7.014;2022-07-06T22:04:53;18.10;99.90
6756;DHT22;3415;51.148;7.014;2022-07-06T22:07:20;18.10;99.90
6756;DHT22;3415;51.148;7.014;2022-07-06T22:09:47;18.10;99.90
6756;DHT22;3415;51.148;7.014;2022-07-06T22:12:14;18.00;99.90
6756;DHT22;3415;51.148;7.014;2022-07-06T22:14:41;18.10;99.90
6756;DHT22;3415;51.148;7.014;2022-07-06T22:17:08;18.10;99.90
6756;DHT22;3415;51.148;7.014;2022-07-06T22:19:36;18.10;99.90
6756;DHT22;3415;51.148;7.014;2022-07-06T22:22:03;18.00;99.90
6756;DHT22;3415;51.148;7.014;2022-07-06T22:26:57;18.00;99.90
6756;DHT22;3415;51.148;7.014;2022-07-06T22:29:24;18.00;99.90
6756;DHT22;3415;51.148;7.014;2022-07-06T22:31:51;18.10;99.90
6756;DHT22;3415;51.148;7.014;2022-07-06T22:34:18;18.10;99.90
6756;DHT22;3415;51.148;7.014;2022-07-06T22:36:46;17.90;99.90
6756;DHT22;3415;51.148;7.014;2022-07-06T22:39:13;17.80;99.90
6756;DHT22;3415;51.148;7.014;2022-07-06T22:41:40;17.80;99.90
6756;DHT22;3415;51.148;7.014;2022-07-06T22:44:06;17.80;99.90
6756;DHT22;3415;51.148;7.014;2022-07-06T22:46:34;17.80;99.90
6756;DHT22;3415;51.148;7.014;2022-07-06T22:49:01;17.70;99.90
6756;DHT22;3415;51.148;7.014;2022-07-06T22:51:28;17.70;99.90
6756;DHT22;3415;51.148;7.014;2022-07-06T22:53:56;17.80;99.90
6756;DHT22;3415;51.148;7.014;2022-07-06T22:56:23;17.80;99.90
6756;DHT22;3415;51.148;7.014;2022-07-06T22:58:51;17.80;99.90
6756;DHT22;3415;51.148;7.014;2022-07-06T23:01:18;17.80;99.90
6756;DHT22;3415;51.148;7.014;2022-07-06T23:03:47;17.90;99.90
6756;DHT22;3415;51.148;7.014;2022-07-06T23:06:16;17.90;99.90
6756;DHT22;3415;51.148;7.014;2022-07-06T23:08:43;17.90;99.90
6756;DHT22;3415;51.148;7.014;2022-07-06T23:11:13;18.00;99.90
6756;DHT22;3415;51.148;7.014;2022-07-06T23:13:40;17.90;99.90
